createdAt,value
2018-07-21T00:04:12.049Z,95076.64
2018-07-21T00:06:41.105Z,95081.21
2018-07-21T00:09:10.191Z,95071.69
2018-07-21T00:11:39.251Z,95079.46
2018-07-21T00:16:44.023Z,95086.61
2018-07-21T00:19:13.068Z,95083.61
2018-07-21T00:21:42.157Z,95081.84
2018-07-21T00:24:12.111Z,95075.14
2018-07-21T00:29:16.895Z,95072.92
2018-07-21T00:31:45.973Z,95070.20
2018-07-21T00:34:18.963Z,95072.56
2018-07-21T00:36:48.019Z,95067.79
2018-07-21T00:39:17.077Z,95064.25
2018-07-21T00:41:47.078Z,95059.69
2018-07-21T00:44:19.345Z,95060.25
2018-07-21T00:46:48.389Z,95065.89
2018-07-21T00:49:18.373Z,95061.91
2018-07-21T00:51:47.458Z,95063.22
2018-07-21T00:56:52.235Z,95066.22
2018-07-21T00:59:23.252Z,95072.98
2018-07-21T01:04:28.025Z,95069.20
2018-07-21T01:06:59.114Z,95072.07
2018-07-21T01:09:29.257Z,95070.59
2018-07-21T01:11:58.296Z,95067.47
2018-07-21T01:14:31.808Z,95070.00
2018-07-21T01:19:36.653Z,95067.30
2018-07-21T01:24:43.524Z,95066.50
2018-07-21T01:27:12.602Z,95072.36
2018-07-21T01:29:41.678Z,95076.50
2018-07-21T01:34:46.489Z,95078.94
2018-07-21T01:37:15.582Z,95075.51
2018-07-21T01:42:20.350Z,95073.70
2018-07-21T01:47:25.202Z,95072.19
2018-07-21T01:49:54.295Z,95072.98
2018-07-21T01:52:23.373Z,95071.97
2018-07-21T01:57:29.172Z,95075.26
2018-07-21T01:59:59.156Z,95075.22
2018-07-21T02:02:29.179Z,95080.13
2018-07-21T02:07:34.042Z,95085.84
2018-07-21T02:14:09.402Z,95095.97
2018-07-21T02:19:14.221Z,95100.98
2018-07-21T02:21:43.303Z,95097.36
2018-07-21T02:24:12.362Z,95099.75
2018-07-21T02:26:41.423Z,95107.93
2018-07-21T02:29:10.483Z,95106.82
2018-07-21T02:31:40.467Z,95108.30
2018-07-21T02:34:09.521Z,95101.31
2018-07-21T02:36:38.581Z,95095.67
2018-07-21T02:39:08.624Z,95092.86
2018-07-21T02:44:13.531Z,95091.09
2018-07-21T02:46:42.590Z,95089.39
2018-07-21T02:51:47.407Z,95083.13
2018-07-21T02:54:16.439Z,95084.61
2018-07-21T02:56:45.476Z,95082.09
2018-07-21T02:59:14.532Z,95080.31
2018-07-21T03:01:43.593Z,95080.36
2018-07-21T03:04:12.656Z,95081.97
2018-07-21T03:06:41.705Z,95078.34
2018-07-21T03:09:10.762Z,95082.63
2018-07-21T03:14:15.602Z,95084.68
2018-07-21T03:16:44.646Z,95080.10
2018-07-21T03:19:13.712Z,95085.42
2018-07-21T03:29:31.190Z,95075.55
2018-07-21T03:32:00.260Z,95074.64
2018-07-21T03:34:30.269Z,95074.84
2018-07-21T03:39:35.051Z,95075.00
2018-07-21T03:44:39.890Z,95079.97
2018-07-21T03:49:44.138Z,95080.43
2018-07-21T03:52:14.629Z,95082.11
2018-07-21T03:54:43.669Z,95080.73
2018-07-21T03:57:12.745Z,95082.28
2018-07-21T03:59:41.833Z,95084.05
2018-07-21T04:04:46.648Z,95077.53
2018-07-21T04:07:15.706Z,95081.12
2018-07-21T04:09:44.755Z,95076.20
2018-07-21T04:12:13.801Z,95080.61
2018-07-21T04:14:46.434Z,95076.05
2018-07-21T04:17:16.499Z,95079.59
2018-07-21T04:19:50.719Z,95080.38
2018-07-21T04:22:19.907Z,95082.88
2018-07-21T04:30:00.530Z,95083.70
2018-07-21T04:32:33.014Z,95091.09
2018-07-21T04:35:02.096Z,95083.80
2018-07-21T04:37:33.126Z,95080.61
2018-07-21T04:45:14.290Z,95079.64
2018-07-21T04:47:47.080Z,95076.96
2018-07-21T04:50:16.247Z,95078.81
2018-07-21T04:57:56.857Z,95078.31
2018-07-21T05:00:26.010Z,95081.66
2018-07-21T05:02:55.272Z,95087.50
2018-07-21T05:08:00.262Z,95089.42
2018-07-21T05:10:32.494Z,95094.12
2018-07-21T05:13:02.727Z,95092.79
2018-07-21T05:20:49.813Z,95098.56
2018-07-21T05:23:21.527Z,95106.89
2018-07-21T05:25:50.602Z,95107.98
2018-07-21T05:28:24.350Z,95112.80
2018-07-21T05:30:53.398Z,95112.09
2018-07-21T05:43:46.450Z,95114.64
2018-07-21T05:46:16.454Z,95115.75
2018-07-21T05:48:46.662Z,95117.66
2018-07-21T05:53:57.269Z,95122.15
2018-07-21T05:56:27.406Z,95125.83
2018-07-21T05:58:56.521Z,95133.47
2018-07-21T06:04:01.865Z,95131.94
2018-07-21T06:06:31.093Z,95131.00
2018-07-21T06:09:00.145Z,95133.80
2018-07-21T06:14:04.922Z,95137.50
2018-07-21T06:19:11.842Z,95140.42
2018-07-21T06:21:40.907Z,95144.97
2018-07-21T06:24:09.951Z,95148.93
2018-07-21T06:26:39.293Z,95153.52
2018-07-21T06:31:47.011Z,95147.33
2018-07-21T06:36:51.782Z,95143.00
2018-07-21T06:39:21.276Z,95140.70
2018-07-21T06:41:50.350Z,95151.45
2018-07-21T06:44:19.389Z,95151.81
2018-07-21T06:46:48.459Z,95159.71
2018-07-21T06:49:17.514Z,95159.22
2018-07-21T06:51:47.500Z,95160.33
2018-07-21T06:56:52.538Z,95168.37
2018-07-21T06:59:21.589Z,95174.26
2018-07-21T07:01:55.284Z,95175.16
2018-07-21T07:04:25.275Z,95171.30
2018-07-21T07:06:54.329Z,95175.50
2018-07-21T07:09:23.398Z,95176.20
2018-07-21T07:14:28.251Z,95178.78
2018-07-21T07:19:33.083Z,95184.83
2018-07-21T07:22:02.411Z,95186.47
2018-07-21T07:27:18.883Z,95191.64
2018-07-21T07:32:23.581Z,95201.48
2018-07-21T07:34:52.638Z,95202.52
2018-07-21T07:37:23.822Z,95205.80
2018-07-21T07:42:32.221Z,95211.25
2018-07-21T07:47:37.484Z,95213.95
2018-07-21T07:50:07.542Z,95211.36
2018-07-21T07:52:36.748Z,95212.69
2018-07-21T07:57:41.574Z,95219.83
2018-07-21T08:00:10.888Z,95215.36
2018-07-21T08:05:16.739Z,95219.02
2018-07-21T08:07:46.772Z,95220.84
2018-07-21T08:10:15.941Z,95224.42
2018-07-21T08:12:45.013Z,95224.80
2018-07-21T08:15:14.337Z,95228.05
2018-07-21T08:17:43.425Z,95230.09
2018-07-21T08:20:14.493Z,95225.46
2018-07-21T08:25:19.302Z,95225.98
2018-07-21T08:27:48.385Z,95224.20
2018-07-21T08:30:17.705Z,95226.24
2018-07-21T08:32:46.765Z,95228.51
2018-07-21T08:35:16.802Z,95226.02
2018-07-21T08:37:45.924Z,95227.21
2018-07-21T08:40:15.430Z,95228.36
2018-07-21T08:42:44.490Z,95224.80
2018-07-21T08:45:15.529Z,95224.44
2018-07-21T08:52:56.211Z,95227.95
2018-07-21T08:55:25.272Z,95228.76
2018-07-21T09:00:30.115Z,95224.23
2018-07-21T09:02:59.181Z,95224.13
2018-07-21T09:05:28.822Z,95221.37
2018-07-21T09:07:57.893Z,95223.27
2018-07-21T09:13:02.748Z,95229.91
2018-07-21T09:15:31.778Z,95231.19
2018-07-21T09:20:41.249Z,95233.56
2018-07-21T09:23:11.587Z,95232.06
2018-07-21T09:25:40.640Z,95234.21
2018-07-21T09:28:09.745Z,95234.35
2018-07-21T09:30:39.162Z,95235.61
2018-07-21T09:33:09.541Z,95241.50
2018-07-21T09:35:38.588Z,95239.61
2018-07-21T09:38:07.674Z,95238.84
2018-07-21T09:40:37.358Z,95238.79
2018-07-21T09:43:10.797Z,95242.95
2018-07-21T09:45:42.173Z,95239.98
2018-07-21T09:48:11.242Z,95240.69
2018-07-21T09:50:48.294Z,95241.25
2018-07-21T09:53:25.746Z,95236.48
2018-07-21T09:55:55.257Z,95234.21
2018-07-21T09:58:24.214Z,95236.28
2018-07-21T10:06:06.037Z,95233.72
2018-07-21T10:08:35.082Z,95232.53
2018-07-21T10:11:04.137Z,95234.84
2018-07-21T10:13:33.532Z,95231.02
2018-07-21T10:16:02.623Z,95227.54
2018-07-21T10:18:35.556Z,95221.87
2018-07-21T10:21:06.567Z,95226.52
2018-07-21T10:23:36.596Z,95225.57
2018-07-21T10:29:07.095Z,95229.13
2018-07-21T10:31:36.368Z,95225.91
2018-07-21T10:34:09.315Z,95223.81
2018-07-21T10:36:39.327Z,95223.96
2018-07-21T10:41:44.111Z,95222.00
2018-07-21T10:46:48.956Z,95222.50
2018-07-21T10:49:18.074Z,95226.83
2018-07-21T10:51:47.297Z,95227.03
2018-07-21T10:54:16.381Z,95222.72
2018-07-21T10:56:45.429Z,95227.00
2018-07-21T11:01:52.230Z,95224.64
2018-07-21T11:04:21.291Z,95226.05
2018-07-21T11:06:50.741Z,95229.25
2018-07-21T11:09:19.805Z,95222.20
2018-07-21T11:11:48.875Z,95218.20
2018-07-21T11:16:53.623Z,95218.62
2018-07-21T11:19:23.635Z,95218.26
2018-07-21T11:24:28.479Z,95215.28
2018-07-21T11:26:57.722Z,95212.50
2018-07-21T11:29:28.951Z,95213.89
2018-07-21T11:34:34.118Z,95209.07
2018-07-21T11:37:04.518Z,95209.88
2018-07-21T11:42:09.610Z,95213.97
2018-07-21T11:44:38.778Z,95215.34
2018-07-21T11:47:08.790Z,95208.35
2018-07-21T11:49:37.847Z,95207.47
2018-07-21T11:54:53.170Z,95209.36
2018-07-21T11:57:29.744Z,95207.16
2018-07-21T11:59:58.812Z,95201.48
2018-07-21T12:02:28.223Z,95204.16
2018-07-21T12:04:57.305Z,95207.89
2018-07-21T12:07:26.394Z,95202.91
2018-07-21T12:09:55.752Z,95203.50
2018-07-21T12:12:24.805Z,95205.73
2018-07-21T12:14:53.852Z,95207.88
2018-07-21T12:17:26.646Z,95200.69
2018-07-21T12:19:56.645Z,95200.05
2018-07-21T12:22:30.284Z,95200.51
2018-07-21T12:27:35.646Z,95195.42
2018-07-21T12:32:40.420Z,95192.23
2018-07-21T12:35:09.468Z,95191.42
2018-07-21T12:37:39.738Z,95194.33
2018-07-21T12:40:10.307Z,95193.31
2018-07-21T12:42:39.346Z,95191.13
2018-07-21T12:50:22.077Z,95190.13
2018-07-21T12:52:51.449Z,95189.34
2018-07-21T12:55:22.677Z,95182.92
2018-07-21T13:03:06.701Z,95178.92
2018-07-21T13:05:37.750Z,95176.56
2018-07-21T13:08:06.833Z,95174.33
2018-07-21T13:10:36.286Z,95169.92
2018-07-21T13:18:17.025Z,95160.13
2018-07-21T13:20:46.254Z,95154.50
2018-07-21T13:25:51.299Z,95147.95
2018-07-21T13:28:20.342Z,95145.84
2018-07-21T13:33:25.406Z,95140.41
2018-07-21T13:35:55.410Z,95134.39
2018-07-21T13:38:24.470Z,95133.02
2018-07-21T13:40:53.916Z,95131.98
2018-07-21T13:43:24.486Z,95134.29
2018-07-21T13:45:55.479Z,95136.33
2018-07-21T13:48:25.493Z,95135.18
2018-07-21T13:50:54.556Z,95135.69
2018-07-21T13:53:27.157Z,95136.69
2018-07-21T13:56:00.444Z,95132.69
2018-07-21T13:58:29.479Z,95131.54
2018-07-21T14:01:03.458Z,95127.70
2018-07-21T14:03:32.649Z,95123.38
2018-07-21T14:06:02.601Z,95125.75
2018-07-21T14:08:31.657Z,95126.12
2018-07-21T14:11:01.390Z,95117.23
2018-07-21T14:13:31.939Z,95119.22
2018-07-21T14:16:01.974Z,95119.80
2018-07-21T14:18:31.012Z,95118.28
2018-07-21T14:21:00.103Z,95120.86
2018-07-21T14:23:29.144Z,95124.13
2018-07-21T14:28:34.169Z,95117.13
2018-07-21T14:31:04.140Z,95115.02
2018-07-21T14:33:33.211Z,95115.81
2018-07-21T14:36:02.693Z,95113.39
2018-07-21T14:38:33.820Z,95115.72
2018-07-21T14:48:50.216Z,95127.27
2018-07-21T14:51:19.261Z,95121.81
2018-07-21T14:56:24.958Z,95125.73
2018-07-21T14:58:54.037Z,95131.61
2018-07-21T15:03:58.911Z,95126.19
2018-07-21T15:06:28.288Z,95121.53
2018-07-21T15:08:57.362Z,95124.44
2018-07-21T15:11:26.411Z,95123.52
2018-07-21T15:13:55.941Z,95127.86
2018-07-21T15:16:25.306Z,95125.16
2018-07-21T15:18:54.407Z,95123.38
2018-07-21T15:21:24.405Z,95112.30
2018-07-21T15:23:53.596Z,95112.20
2018-07-21T15:26:22.637Z,95104.97
2018-07-21T15:31:27.385Z,95102.54
2018-07-21T15:33:56.434Z,95103.38
2018-07-21T15:36:32.709Z,95101.96
2018-07-21T15:39:02.743Z,95101.97
2018-07-21T15:41:31.804Z,95103.77
2018-07-21T15:44:01.151Z,95097.63
2018-07-21T15:46:30.215Z,95101.50
2018-07-21T15:48:59.270Z,95098.70
2018-07-21T15:51:28.583Z,95102.05
2018-07-21T15:53:57.914Z,95109.34
2018-07-21T15:56:27.952Z,95112.96
2018-07-21T16:01:32.782Z,95106.39
2018-07-21T16:04:01.881Z,95108.47
2018-07-21T16:06:30.931Z,95106.83
2018-07-21T16:09:00.000Z,95116.20
2018-07-21T16:14:05.041Z,95110.73
2018-07-21T16:16:34.999Z,95104.02
2018-07-21T16:19:09.051Z,95109.14
2018-07-21T16:21:39.069Z,95109.75
2018-07-21T16:24:08.148Z,95105.91
2018-07-21T16:26:37.205Z,95108.52
2018-07-21T16:29:06.258Z,95111.36
2018-07-21T16:34:11.101Z,95105.64
2018-07-21T16:39:17.140Z,95102.16
2018-07-21T16:41:48.198Z,95101.47
2018-07-21T16:44:18.222Z,95103.96
2018-07-21T16:46:47.277Z,95101.67
2018-07-21T16:49:16.863Z,95100.64
2018-07-21T16:51:46.864Z,95097.60
2018-07-21T16:54:15.909Z,95095.06
2018-07-21T16:56:44.965Z,95094.42
2018-07-21T16:59:15.437Z,95095.99
2018-07-21T17:01:44.492Z,95091.89
2018-07-21T17:04:13.549Z,95090.92
2018-07-21T17:06:42.889Z,95087.27
2018-07-21T17:09:11.943Z,95091.14
2018-07-21T17:11:40.980Z,95088.27
2018-07-21T17:14:10.046Z,95088.89
2018-07-21T17:16:39.747Z,95094.09
2018-07-21T17:19:13.624Z,95091.17
2018-07-21T17:24:18.473Z,95092.28
2018-07-21T17:29:23.288Z,95098.75
2018-07-21T17:31:54.516Z,95109.41
2018-07-21T17:34:23.847Z,95107.83
2018-07-21T17:36:57.651Z,95113.66
2018-07-21T17:42:03.594Z,95115.97
2018-07-21T17:44:32.880Z,95118.11
2018-07-21T17:47:02.879Z,95119.05
2018-07-21T17:49:31.937Z,95126.28
2018-07-21T17:52:01.019Z,95130.70
2018-07-21T17:54:30.241Z,95127.63
2018-07-21T17:56:59.290Z,95132.73
2018-07-21T17:59:29.301Z,95132.55
2018-07-21T18:01:59.318Z,95132.70
2018-07-21T18:04:28.405Z,95131.64
2018-07-21T18:06:57.661Z,95133.80
2018-07-21T18:09:26.727Z,95137.48
2018-07-21T18:11:59.589Z,95136.92
2018-07-21T18:14:29.629Z,95137.09
2018-07-21T18:16:58.704Z,95137.48
2018-07-21T18:19:29.768Z,95136.72
2018-07-21T18:21:59.057Z,95141.19
2018-07-21T18:27:07.398Z,95139.85
2018-07-21T18:29:38.473Z,95139.27
2018-07-21T18:32:15.016Z,95138.13
2018-07-21T18:37:19.778Z,95141.00
2018-07-21T18:39:57.193Z,95142.41
2018-07-21T18:42:26.211Z,95143.02
2018-07-21T18:44:55.277Z,95146.83
2018-07-21T18:47:24.329Z,95147.16
2018-07-21T18:49:53.381Z,95153.78
2018-07-21T18:54:58.227Z,95156.61
2018-07-21T18:57:27.302Z,95161.45
2018-07-21T18:59:56.363Z,95170.91
2018-07-21T19:02:27.345Z,95172.10
2018-07-21T19:04:56.417Z,95174.83
2018-07-21T19:07:25.474Z,95174.63
2018-07-21T19:09:55.653Z,95177.05
2018-07-21T19:12:25.694Z,95178.08
2018-07-21T19:14:54.737Z,95180.92
2018-07-21T19:17:23.827Z,95185.03
2018-07-21T19:22:28.648Z,95191.75
2018-07-21T19:27:33.518Z,95196.80
2018-07-21T19:30:02.587Z,95203.38
2018-07-21T19:32:31.645Z,95200.98
2018-07-21T19:35:00.712Z,95198.34
2018-07-21T19:37:29.790Z,95200.95
2018-07-21T19:40:03.003Z,95199.86
2018-07-21T19:42:31.946Z,95202.44
2018-07-21T19:45:01.008Z,95208.07
2018-07-21T19:47:31.059Z,95208.51
2018-07-21T19:50:00.143Z,95207.12
2018-07-21T19:52:29.201Z,95207.27
2018-07-21T19:55:08.858Z,95210.57
2018-07-21T19:57:37.933Z,95210.19
2018-07-21T20:00:07.003Z,95215.77
2018-07-21T20:02:36.070Z,95222.72
2018-07-21T20:05:05.156Z,95225.09
2018-07-21T20:10:10.007Z,95228.83
2018-07-21T20:15:14.857Z,95229.66
2018-07-21T20:22:59.857Z,95223.59
2018-07-21T20:25:30.882Z,95221.05
2018-07-21T20:28:04.800Z,95219.38
2018-07-21T20:30:34.878Z,95221.31
2018-07-21T20:33:03.902Z,95221.01
2018-07-21T20:38:08.674Z,95225.13
2018-07-21T20:40:37.762Z,95223.36
2018-07-21T20:43:06.834Z,95226.68
2018-07-21T20:45:35.922Z,95227.96
2018-07-21T20:48:04.994Z,95225.19
2018-07-21T20:50:34.987Z,95227.42
2018-07-21T20:53:05.001Z,95227.50
2018-07-21T20:55:34.120Z,95229.43
2018-07-21T20:58:03.173Z,95231.50
2018-07-21T21:00:32.273Z,95234.77
2018-07-21T21:03:01.323Z,95236.48
2018-07-21T21:05:30.419Z,95239.28
2018-07-21T21:07:59.526Z,95242.69
2018-07-21T21:10:28.598Z,95243.95
2018-07-21T21:15:33.380Z,95245.69
2018-07-21T21:18:02.446Z,95246.06
2018-07-21T21:20:31.517Z,95241.88
2018-07-21T21:23:00.590Z,95246.27
2018-07-21T21:25:29.657Z,95245.59
2018-07-21T21:27:58.739Z,95247.02
2018-07-21T21:30:31.730Z,95247.30
2018-07-21T21:33:00.804Z,95242.25
2018-07-21T21:35:29.934Z,95245.70
2018-07-21T21:38:00.978Z,95241.59
2018-07-21T21:40:30.995Z,95240.73
2018-07-21T21:43:03.876Z,95237.41
2018-07-21T21:45:32.950Z,95234.48
2018-07-21T21:48:02.020Z,95239.70
2018-07-21T21:50:31.089Z,95236.73
2018-07-21T21:53:09.283Z,95240.36
2018-07-21T21:55:39.301Z,95241.26
2018-07-21T21:58:09.381Z,95238.46
2018-07-21T22:00:49.481Z,95240.75
2018-07-21T22:03:18.565Z,95237.52
2018-07-21T22:08:23.348Z,95237.02
2018-07-21T22:13:28.199Z,95230.17
2018-07-21T22:15:57.289Z,95230.73
2018-07-21T22:18:35.186Z,95234.56
2018-07-21T22:21:05.223Z,95234.77
2018-07-21T22:26:13.634Z,95234.45
2018-07-21T22:28:42.706Z,95232.38
2018-07-21T22:31:11.774Z,95237.47
2018-07-21T22:33:42.797Z,95231.57
2018-07-21T22:36:13.816Z,95229.97
2018-07-21T22:38:42.897Z,95230.29
2018-07-21T22:41:13.970Z,95232.22
2018-07-21T22:43:45.008Z,95228.59
2018-07-21T22:46:14.086Z,95230.08
2018-07-21T22:48:43.150Z,95228.50
2018-07-21T22:51:36.279Z,95231.84
2018-07-21T22:56:41.128Z,95232.30
2018-07-21T23:02:12.478Z,95232.92
2018-07-21T23:04:46.466Z,95232.21
2018-07-21T23:07:19.298Z,95226.21
2018-07-21T23:09:48.405Z,95227.30
2018-07-21T23:12:17.478Z,95222.98
2018-07-21T23:15:03.416Z,95225.86
2018-07-21T23:17:32.486Z,95227.70
2018-07-21T23:20:01.571Z,95220.33
2018-07-21T23:25:10.121Z,95224.23
2018-07-21T23:27:39.198Z,95221.46
2018-07-21T23:32:47.523Z,95226.75
2018-07-21T23:35:16.571Z,95225.91
2018-07-21T23:37:45.629Z,95226.23
2018-07-21T23:45:26.234Z,95222.92
2018-07-21T23:48:12.881Z,95225.52
2018-07-21T23:50:41.957Z,95225.14
2018-07-21T23:53:11.026Z,95217.83
2018-07-21T23:58:16.005Z,95218.87
